createdAt,value
2018-10-09T00:01:50.061Z,11.86
2018-10-09T00:04:18.494Z,11.83
2018-10-09T00:06:46.885Z,11.80
2018-10-09T00:09:15.287Z,11.81
2018-10-09T00:11:43.603Z,11.78
2018-10-09T00:14:11.929Z,11.77
2018-10-09T00:16:40.341Z,11.76
2018-10-09T00:19:08.626Z,11.73
2018-10-09T00:21:36.885Z,11.70
2018-10-09T00:24:05.270Z,11.67
2018-10-09T00:26:33.611Z,11.66
2018-10-09T00:29:01.944Z,11.63
2018-10-09T00:31:30.212Z,11.59
2018-10-09T00:33:58.602Z,11.56
2018-10-09T00:36:26.913Z,11.51
2018-10-09T00:38:55.189Z,11.47
2018-10-09T00:41:23.685Z,11.45
2018-10-09T00:43:52.009Z,11.43
2018-10-09T00:46:20.294Z,11.44
2018-10-09T00:48:48.620Z,11.40
2018-10-09T00:51:17.169Z,11.37
2018-10-09T00:53:45.507Z,11.34
2018-10-09T00:56:13.783Z,11.31
2018-10-09T00:58:42.065Z,11.25
2018-10-09T01:01:10.601Z,11.24
2018-10-09T01:03:38.915Z,11.21
2018-10-09T01:06:07.471Z,11.19
2018-10-09T01:08:35.816Z,11.18
2018-10-09T01:11:04.235Z,11.17
2018-10-09T01:13:32.664Z,11.17
2018-10-09T01:16:01.024Z,11.18
2018-10-09T01:18:29.452Z,11.18
2018-10-09T01:20:57.799Z,11.20
2018-10-09T01:23:26.103Z,11.17
2018-10-09T01:25:54.551Z,11.14
2018-10-09T01:28:22.807Z,11.13
2018-10-09T01:30:51.121Z,11.12
2018-10-09T01:33:19.390Z,11.11
2018-10-09T01:35:47.834Z,11.08
2018-10-09T01:38:16.195Z,11.09
2018-10-09T01:40:44.539Z,11.11
2018-10-09T01:43:12.947Z,11.09
2018-10-09T01:45:41.375Z,11.08
2018-10-09T01:48:09.678Z,11.06
2018-10-09T01:50:38.087Z,11.02
2018-10-09T01:53:06.402Z,11.00
2018-10-09T01:55:34.676Z,10.94
2018-10-09T01:58:02.954Z,10.92
2018-10-09T02:00:31.450Z,10.91
2018-10-09T02:02:59.707Z,10.93
2018-10-09T02:05:28.119Z,10.89
2018-10-09T02:07:56.425Z,10.85
2018-10-09T02:10:24.687Z,10.76
2018-10-09T02:12:53.227Z,10.76
2018-10-09T02:15:21.503Z,10.74
2018-10-09T02:17:49.960Z,10.74
2018-10-09T02:20:18.265Z,10.70
2018-10-09T02:22:46.541Z,10.74
2018-10-09T02:25:14.836Z,10.79
2018-10-09T02:27:43.128Z,10.81
2018-10-09T02:30:11.685Z,10.79
2018-10-09T02:32:40.026Z,10.81
2018-10-09T02:35:08.414Z,10.80
2018-10-09T02:37:36.869Z,10.78
2018-10-09T02:40:06.271Z,10.76
2018-10-09T02:42:34.722Z,10.72
2018-10-09T02:45:03.064Z,10.70
2018-10-09T02:47:31.417Z,10.69
2018-10-09T02:49:59.884Z,10.74
2018-10-09T02:52:28.188Z,10.71
2018-10-09T02:54:56.639Z,10.67
2018-10-09T02:57:24.952Z,10.63
2018-10-09T02:59:53.222Z,10.61
2018-10-09T03:02:22.125Z,10.63
2018-10-09T03:04:50.381Z,10.61
2018-10-09T03:07:18.702Z,10.59
2018-10-09T03:09:47.088Z,10.56
2018-10-09T03:12:15.363Z,10.52
2018-10-09T03:14:43.773Z,10.47
2018-10-09T03:17:12.100Z,10.44
2018-10-09T03:19:40.479Z,10.43
2018-10-09T03:22:09.009Z,10.45
2018-10-09T03:24:37.419Z,10.47
2018-10-09T03:27:05.748Z,10.47
2018-10-09T03:29:34.058Z,10.47
2018-10-09T03:32:04.520Z,10.48
2018-10-09T03:34:32.883Z,10.46
2018-10-09T03:37:01.150Z,10.42
2018-10-09T03:39:29.463Z,10.44
2018-10-09T03:41:57.796Z,10.46
2018-10-09T03:44:26.095Z,10.39
2018-10-09T03:46:54.435Z,10.42
2018-10-09T03:49:22.785Z,10.42
2018-10-09T03:51:51.485Z,10.39
2018-10-09T03:54:19.728Z,10.34
2018-10-09T03:56:48.173Z,10.35
2018-10-09T03:59:16.451Z,10.32
2018-10-09T04:01:44.715Z,10.31
2018-10-09T04:04:13.015Z,10.26
2018-10-09T04:06:41.375Z,10.31
2018-10-09T04:09:11.892Z,10.31
2018-10-09T04:11:40.264Z,10.33
2018-10-09T04:14:08.623Z,10.33
2018-10-09T04:16:37.099Z,10.35
2018-10-09T04:19:05.649Z,10.37
2018-10-09T04:21:34.011Z,10.54
2018-10-09T04:24:02.304Z,10.59
2018-10-09T04:29:06.115Z,10.69
2018-10-09T04:31:34.475Z,10.84
2018-10-09T04:34:02.742Z,11.01
2018-10-09T04:36:31.092Z,11.13
2018-10-09T04:38:59.437Z,11.15
2018-10-09T04:41:27.672Z,11.20
2018-10-09T04:43:56.045Z,11.23
2018-10-09T04:46:24.603Z,11.27
2018-10-09T04:48:52.857Z,11.31
2018-10-09T04:51:21.132Z,11.26
2018-10-09T04:53:49.409Z,11.33
2018-10-09T04:56:17.659Z,11.34
2018-10-09T04:58:46.009Z,11.40
2018-10-09T05:01:14.441Z,11.41
2018-10-09T05:03:42.743Z,11.43
2018-10-09T05:06:11.317Z,11.47
2018-10-09T05:08:39.597Z,11.42
2018-10-09T05:11:07.991Z,11.41
2018-10-09T05:13:36.304Z,11.35
2018-10-09T05:16:04.875Z,11.30
2018-10-09T05:18:33.255Z,11.27
2018-10-09T05:21:01.692Z,11.20
2018-10-09T05:23:30.172Z,11.15
2018-10-09T05:25:58.695Z,11.18
2018-10-09T05:28:26.933Z,11.22
2018-10-09T05:30:55.318Z,11.14
2018-10-09T05:33:23.680Z,11.19
2018-10-09T05:35:52.005Z,11.20
2018-10-09T05:38:20.289Z,11.31
2018-10-09T05:40:48.679Z,11.30
2018-10-09T05:43:16.991Z,11.31
2018-10-09T05:45:45.290Z,11.44
2018-10-09T05:48:13.747Z,11.43
2018-10-09T05:50:42.188Z,11.44
2018-10-09T05:53:10.441Z,11.45
2018-10-09T05:55:38.721Z,11.56
2018-10-09T05:58:07.455Z,11.67
2018-10-09T06:00:35.798Z,11.64
2018-10-09T06:03:04.188Z,11.65
2018-10-09T06:05:33.178Z,11.78
2018-10-09T06:08:01.463Z,11.75
2018-10-09T06:10:29.834Z,11.72
2018-10-09T06:12:58.336Z,11.69
2018-10-09T06:15:26.799Z,11.66
2018-10-09T06:18:01.350Z,11.74
2018-10-09T06:20:29.668Z,11.86
2018-10-09T06:22:57.947Z,11.84
2018-10-09T06:25:26.420Z,11.74
2018-10-09T06:27:54.907Z,11.83
2018-10-09T06:30:23.369Z,11.80
2018-10-09T06:32:51.950Z,11.70
2018-10-09T06:35:20.282Z,11.83
2018-10-09T06:37:48.657Z,11.90
2018-10-09T06:40:17.267Z,12.11
2018-10-09T06:42:45.620Z,12.19
2018-10-09T06:45:14.178Z,12.20
2018-10-09T06:47:42.898Z,12.41
2018-10-09T06:50:11.199Z,12.60
2018-10-09T06:52:39.724Z,12.63
2018-10-09T06:55:08.062Z,12.77
2018-10-09T06:57:36.489Z,13.00
2018-10-09T07:00:05.134Z,13.12
2018-10-09T07:02:33.441Z,13.19
2018-10-09T07:05:01.759Z,13.16
2018-10-09T07:07:30.130Z,13.19
2018-10-09T07:09:58.503Z,13.43
2018-10-09T07:12:43.528Z,13.45
2018-10-09T07:15:12.970Z,13.55
2018-10-09T07:17:41.872Z,13.56
2018-10-09T07:20:10.438Z,13.61
2018-10-09T07:22:38.828Z,13.53
2018-10-09T07:25:08.285Z,13.62
2018-10-09T07:27:36.650Z,13.65
2018-10-09T07:30:06.228Z,13.63
2018-10-09T07:32:34.732Z,13.48
2018-10-09T07:35:03.101Z,13.38
2018-10-09T07:37:31.811Z,13.30
2018-10-09T07:40:00.227Z,13.15
2018-10-09T07:42:29.698Z,13.07
2018-10-09T07:44:58.085Z,13.12
2018-10-09T07:47:26.438Z,13.33
2018-10-09T07:49:55.747Z,13.37
2018-10-09T07:52:24.127Z,13.53
2018-10-09T07:54:53.662Z,13.65
2018-10-09T07:57:21.984Z,13.77
2018-10-09T07:59:50.470Z,14.00
2018-10-09T08:02:18.760Z,14.07
2018-10-09T08:04:47.277Z,14.16
2018-10-09T08:07:15.690Z,14.26
2018-10-09T08:09:43.976Z,14.37
2018-10-09T08:12:12.611Z,14.46
2018-10-09T08:14:40.899Z,14.54
2018-10-09T08:17:11.643Z,14.60
2018-10-09T08:19:39.963Z,14.77
2018-10-09T08:22:08.437Z,14.98
2018-10-09T08:24:37.990Z,15.02
2018-10-09T08:27:06.633Z,15.18
2018-10-09T08:29:36.610Z,15.18
2018-10-09T08:32:05.067Z,15.34
2018-10-09T08:34:33.584Z,15.49
2018-10-09T08:37:01.908Z,15.63
2018-10-09T08:39:30.378Z,15.77
2018-10-09T08:41:58.759Z,15.84
2018-10-09T08:44:29.801Z,16.15
2018-10-09T08:46:59.156Z,16.38
2018-10-09T08:49:27.486Z,16.58
2018-10-09T08:51:56.102Z,16.71
2018-10-09T08:54:25.010Z,16.97
2018-10-09T08:56:53.361Z,16.79
2018-10-09T08:59:26.564Z,16.99
2018-10-09T09:01:54.806Z,17.08
2018-10-09T09:04:23.097Z,17.30
2018-10-09T09:06:51.363Z,17.45
2018-10-09T09:09:19.711Z,17.64
2018-10-09T09:11:48.595Z,17.90
2018-10-09T09:14:17.110Z,17.92
2018-10-09T09:16:45.762Z,18.04
2018-10-09T09:19:14.349Z,18.15
2018-10-09T09:21:43.302Z,18.13
2018-10-09T09:24:11.652Z,18.14
2018-10-09T09:26:41.865Z,18.33
2018-10-09T09:29:10.140Z,18.51
2018-10-09T09:31:38.453Z,18.61
2018-10-09T09:34:07.044Z,18.89
2018-10-09T09:36:35.731Z,18.97
2018-10-09T09:39:04.596Z,19.17
2018-10-09T09:41:32.881Z,19.29
2018-10-09T09:44:01.157Z,19.45
2018-10-09T09:46:29.669Z,19.83
2018-10-09T09:48:59.288Z,19.74
2018-10-09T09:51:27.576Z,20.00
2018-10-09T09:53:56.596Z,19.95
2018-10-09T09:56:25.595Z,20.13
2018-10-09T09:58:54.692Z,20.29
2018-10-09T10:01:28.432Z,20.20
2018-10-09T10:03:56.886Z,20.53
2018-10-09T10:06:25.230Z,20.73
2018-10-09T10:08:53.570Z,20.76
2018-10-09T10:11:22.133Z,20.73
2018-10-09T10:13:50.448Z,20.94
2018-10-09T10:16:18.761Z,21.28
2018-10-09T10:18:47.061Z,21.19
2018-10-09T10:21:15.386Z,21.37
2018-10-09T10:23:43.730Z,21.46
2018-10-09T10:26:12.172Z,21.67
2018-10-09T10:28:40.484Z,21.63
2018-10-09T10:31:08.910Z,21.57
2018-10-09T10:33:37.322Z,21.58
2018-10-09T10:36:05.580Z,21.91
2018-10-09T10:38:34.033Z,22.15
2018-10-09T10:41:02.307Z,22.36
2018-10-09T10:43:30.645Z,22.77
2018-10-09T10:45:59.075Z,22.83
2018-10-09T10:48:27.348Z,22.85
2018-10-09T10:50:55.964Z,23.03
2018-10-09T10:53:24.310Z,23.29
2018-10-09T10:55:53.004Z,23.53
2018-10-09T10:58:21.421Z,23.29
2018-10-09T11:00:50.144Z,23.50
2018-10-09T11:03:18.711Z,23.40
2018-10-09T11:05:47.000Z,23.52
2018-10-09T11:08:15.284Z,23.42
2018-10-09T11:10:43.544Z,23.28
2018-10-09T11:13:11.912Z,23.43
2018-10-09T11:15:40.362Z,23.31
2018-10-09T11:18:08.611Z,23.42
2018-10-09T11:20:36.974Z,23.46
2018-10-09T11:23:07.244Z,23.50
2018-10-09T11:25:35.612Z,23.49
2018-10-09T11:28:03.946Z,23.61
2018-10-09T11:30:32.206Z,23.82
2018-10-09T11:33:00.590Z,23.85
2018-10-09T11:35:28.843Z,24.38
2018-10-09T11:37:57.161Z,24.93
2018-10-09T11:40:25.471Z,25.25
2018-10-09T11:42:53.876Z,25.56
2018-10-09T11:45:22.245Z,25.63
2018-10-09T11:47:50.736Z,26.23
2018-10-09T11:50:19.062Z,26.45
2018-10-09T11:52:47.432Z,26.95
2018-10-09T11:55:15.889Z,27.17
2018-10-09T11:57:44.316Z,27.92
2018-10-09T12:00:12.634Z,28.39
2018-10-09T12:02:40.958Z,28.84
2018-10-09T12:05:09.820Z,29.53
2018-10-09T12:07:38.200Z,30.51
2018-10-09T12:10:06.545Z,30.60
2018-10-09T12:12:36.931Z,30.36
2018-10-09T12:15:05.684Z,30.77
2018-10-09T12:17:33.979Z,31.17
2018-10-09T12:20:02.246Z,31.06
2018-10-09T12:22:30.645Z,30.62
2018-10-09T12:24:59.018Z,31.08
2018-10-09T12:27:30.959Z,30.10
2018-10-09T12:29:59.387Z,30.40
2018-10-09T12:32:28.060Z,30.77
2018-10-09T12:34:56.401Z,30.27
2018-10-09T12:37:25.741Z,29.52
2018-10-09T12:39:54.154Z,29.25
2018-10-09T12:42:22.955Z,30.16
2018-10-09T12:44:51.315Z,30.40
2018-10-09T12:47:19.690Z,30.09
2018-10-09T12:49:48.078Z,30.27
2018-10-09T12:52:16.475Z,30.84
2018-10-09T12:54:45.570Z,29.85
2018-10-09T12:57:14.461Z,30.34
2018-10-09T12:59:42.768Z,30.73
2018-10-09T13:02:11.171Z,31.38
2018-10-09T13:04:39.671Z,31.73
2018-10-09T13:07:08.417Z,32.07
2018-10-09T13:09:36.899Z,32.06
2018-10-09T13:12:05.329Z,31.90
2018-10-09T13:14:33.818Z,31.58
2018-10-09T13:17:02.373Z,31.82
2018-10-09T13:19:43.973Z,32.02
2018-10-09T13:22:29.397Z,32.65
2018-10-09T13:24:57.408Z,32.34
2018-10-09T13:27:25.738Z,31.86
2018-10-09T13:29:54.131Z,31.38
2018-10-09T13:32:22.460Z,30.39
2018-10-09T13:34:50.751Z,29.73
2018-10-09T13:37:19.386Z,29.56
2018-10-09T13:39:47.705Z,30.20
2018-10-09T13:42:16.024Z,30.90
2018-10-09T13:44:44.358Z,31.65
2018-10-09T13:47:12.810Z,32.03
2018-10-09T13:49:41.241Z,32.43
2018-10-09T13:52:09.705Z,32.89
2018-10-09T13:54:38.018Z,33.55
2018-10-09T13:57:06.729Z,34.34
2018-10-09T13:59:35.300Z,34.58
2018-10-09T14:02:03.822Z,34.68
2018-10-09T14:04:32.116Z,34.31
2018-10-09T14:07:00.524Z,34.00
2018-10-09T14:09:28.774Z,33.94
2018-10-09T14:11:57.097Z,34.32
2018-10-09T14:14:25.397Z,32.83
2018-10-09T14:16:53.724Z,32.09
2018-10-09T14:19:22.061Z,31.42
2018-10-09T14:21:50.564Z,31.20
2018-10-09T14:24:18.865Z,32.55
2018-10-09T14:26:47.174Z,33.04
2018-10-09T14:29:15.488Z,32.75
2018-10-09T14:31:43.978Z,32.42
2018-10-09T14:34:12.307Z,32.71
2018-10-09T14:36:40.888Z,32.01
2018-10-09T14:39:09.575Z,31.53
2018-10-09T14:41:38.181Z,30.81
2018-10-09T14:44:06.735Z,30.47
2018-10-09T14:46:35.133Z,30.37
2018-10-09T14:49:03.381Z,29.69
2018-10-09T14:51:31.887Z,29.29
2018-10-09T14:54:00.216Z,28.60
2018-10-09T14:56:28.532Z,28.39
2018-10-09T14:58:56.824Z,27.71
2018-10-09T15:01:25.196Z,27.29
2018-10-09T15:03:53.753Z,27.01
2018-10-09T15:06:22.479Z,26.83
2018-10-09T15:10:20.062Z,26.26
2018-10-09T15:12:48.417Z,25.83
2018-10-09T15:15:16.764Z,25.39
2018-10-09T15:17:45.182Z,25.10
2018-10-09T15:20:13.764Z,24.85
2018-10-09T15:22:42.102Z,24.73
2018-10-09T15:25:10.495Z,24.85
2018-10-09T15:27:38.926Z,25.37
2018-10-09T15:30:07.275Z,25.68
2018-10-09T15:32:35.718Z,26.20
2018-10-09T15:35:03.992Z,26.51
2018-10-09T15:37:32.544Z,26.82
2018-10-09T15:40:00.859Z,26.82
2018-10-09T15:42:29.303Z,26.29
2018-10-09T15:44:57.622Z,25.74
2018-10-09T15:47:25.917Z,25.10
2018-10-09T15:49:54.149Z,24.67
2018-10-09T15:52:22.413Z,24.23
2018-10-09T15:54:50.715Z,23.94
2018-10-09T15:57:19.154Z,23.55
2018-10-09T15:59:47.492Z,23.39
2018-10-09T16:02:16.388Z,23.26
2018-10-09T16:04:44.664Z,23.13
2018-10-09T16:07:13.116Z,22.98
2018-10-09T16:09:41.986Z,22.90
2018-10-09T16:12:10.342Z,22.67
2018-10-09T16:14:38.723Z,22.49
2018-10-09T16:17:07.287Z,22.37
2018-10-09T16:19:35.818Z,22.07
2018-10-09T16:22:04.444Z,21.99
2018-10-09T16:24:32.712Z,21.87
2018-10-09T16:27:01.004Z,21.52
2018-10-09T16:29:29.340Z,21.33
2018-10-09T16:31:57.659Z,21.13
2018-10-09T16:34:25.927Z,20.90
2018-10-09T16:36:54.183Z,20.73
2018-10-09T16:39:22.500Z,20.53
2018-10-09T16:41:50.841Z,20.39
2018-10-09T16:44:19.230Z,20.23
2018-10-09T16:46:47.628Z,20.01
2018-10-09T16:49:15.951Z,19.81
2018-10-09T16:51:44.301Z,19.54
2018-10-09T16:54:12.706Z,19.33
2018-10-09T16:56:41.006Z,19.12
2018-10-09T16:59:09.319Z,18.95
2018-10-09T17:01:38.013Z,18.87
2018-10-09T17:04:06.380Z,18.72
2018-10-09T17:06:34.929Z,18.77
2018-10-09T17:09:03.455Z,18.77
2018-10-09T17:11:31.956Z,18.65
2018-10-09T17:14:00.451Z,18.45
2018-10-09T17:16:28.800Z,18.18
2018-10-09T17:18:57.136Z,18.03
2018-10-09T17:21:25.434Z,17.88
2018-10-09T17:23:54.340Z,17.71
2018-10-09T17:26:22.802Z,17.54
2018-10-09T17:28:51.792Z,17.45
2018-10-09T17:31:20.220Z,17.32
2018-10-09T17:33:48.570Z,17.23
2018-10-09T17:36:17.112Z,17.11
2018-10-09T17:38:45.514Z,17.01
2018-10-09T17:41:13.888Z,16.99
2018-10-09T17:43:42.444Z,16.85
2018-10-09T17:46:11.107Z,16.73
2018-10-09T17:48:39.555Z,16.62
2018-10-09T17:51:07.933Z,16.56
2018-10-09T17:53:36.273Z,16.44
2018-10-09T17:56:05.212Z,16.30
2018-10-09T17:58:33.505Z,16.25
2018-10-09T18:01:01.852Z,16.23
2018-10-09T18:03:30.286Z,16.16
2018-10-09T18:05:58.740Z,16.08
2018-10-09T18:08:27.147Z,16.04
2018-10-09T18:10:55.475Z,15.93
2018-10-09T18:13:24.038Z,15.83
2018-10-09T18:15:52.290Z,15.75
2018-10-09T18:18:20.704Z,15.70
2018-10-09T18:20:49.098Z,15.61
2018-10-09T18:23:17.376Z,15.54
2018-10-09T18:25:45.620Z,15.51
2018-10-09T18:28:13.946Z,15.42
2018-10-09T18:30:42.291Z,15.35
2018-10-09T18:33:10.689Z,15.36
2018-10-09T18:35:38.976Z,15.27
2018-10-09T18:38:07.385Z,15.19
2018-10-09T18:40:35.831Z,15.12
2018-10-09T18:43:04.077Z,15.09
2018-10-09T18:45:32.505Z,15.00
2018-10-09T18:48:00.830Z,15.02
2018-10-09T18:50:29.224Z,14.96
2018-10-09T18:52:59.371Z,14.93
2018-10-09T18:55:27.727Z,14.90
2018-10-09T18:57:56.123Z,14.83
2018-10-09T19:00:24.512Z,14.82
2018-10-09T19:02:52.859Z,14.80
2018-10-09T19:05:21.256Z,14.77
2018-10-09T19:07:49.611Z,14.74
2018-10-09T19:10:17.953Z,14.73
2018-10-09T19:12:46.240Z,14.70
2018-10-09T19:15:14.705Z,14.69
2018-10-09T19:17:43.030Z,14.66
2018-10-09T19:20:11.256Z,14.63
2018-10-09T19:22:39.603Z,14.55
2018-10-09T19:25:08.204Z,14.57
2018-10-09T19:27:36.742Z,14.57
2018-10-09T19:30:05.969Z,14.64
2018-10-09T19:32:34.369Z,14.67
2018-10-09T19:35:09.915Z,14.68
2018-10-09T19:37:38.525Z,14.63
2018-10-09T19:40:06.982Z,14.63
2018-10-09T19:42:35.315Z,14.61
2018-10-09T19:45:03.688Z,14.54
2018-10-09T19:47:35.168Z,14.54
2018-10-09T19:50:04.652Z,14.49
2018-10-09T19:52:32.920Z,14.43
2018-10-09T19:55:01.301Z,14.40
2018-10-09T19:57:29.904Z,14.39
2018-10-09T19:59:58.503Z,14.39
2018-10-09T20:02:26.838Z,14.39
2018-10-09T20:04:55.266Z,14.37
2018-10-09T20:07:23.696Z,14.33
2018-10-09T20:09:51.996Z,14.30
2018-10-09T20:12:20.284Z,14.27
2018-10-09T20:14:48.646Z,14.24
2018-10-09T20:17:17.012Z,14.28
2018-10-09T20:19:45.310Z,14.27
2018-10-09T20:22:13.851Z,14.25
2018-10-09T20:24:43.437Z,14.18
2018-10-09T20:27:11.813Z,14.15
2018-10-09T20:29:40.088Z,14.12
2018-10-09T20:32:08.466Z,14.16
2018-10-09T20:34:36.742Z,14.14
2018-10-09T20:37:05.128Z,14.13
2018-10-09T20:39:33.634Z,14.10
2018-10-09T20:42:02.364Z,14.02
2018-10-09T20:44:30.844Z,13.99
2018-10-09T20:46:59.156Z,13.93
2018-10-09T20:49:27.609Z,13.87
2018-10-09T20:51:56.091Z,13.85
2018-10-09T20:54:24.620Z,13.83
2018-10-09T20:56:53.036Z,13.81
2018-10-09T20:59:22.040Z,13.77
2018-10-09T21:01:50.370Z,13.78
2018-10-09T21:04:18.778Z,13.73
2018-10-09T21:06:47.211Z,13.75
2018-10-09T21:09:15.697Z,13.73
2018-10-09T21:11:44.361Z,13.72
2018-10-09T21:14:12.919Z,13.66
2018-10-09T21:16:41.280Z,13.66
2018-10-09T21:19:09.714Z,13.62
2018-10-09T21:21:38.097Z,13.60
2018-10-09T21:24:06.899Z,13.51
2018-10-09T21:26:36.087Z,13.45
2018-10-09T21:29:08.429Z,13.41
2018-10-09T21:31:38.811Z,13.36
2018-10-09T21:34:07.134Z,13.32
2018-10-09T21:36:35.644Z,13.25
2018-10-09T21:39:05.236Z,13.17
2018-10-09T21:41:33.542Z,13.12
2018-10-09T21:44:01.924Z,13.05
2018-10-09T21:46:30.212Z,12.99
2018-10-09T21:48:58.870Z,12.94
2018-10-09T21:51:27.409Z,12.88
2018-10-09T21:53:56.635Z,12.83
2018-10-09T21:56:24.957Z,12.80
2018-10-09T21:58:53.215Z,12.82
2018-10-09T22:01:21.704Z,12.78
2018-10-09T22:03:50.304Z,12.74
2018-10-09T22:06:18.588Z,12.70
2018-10-09T22:08:46.899Z,12.69
2018-10-09T22:11:15.520Z,12.69
2018-10-09T22:13:44.142Z,12.70
2018-10-09T22:16:13.063Z,12.71
2018-10-09T22:18:41.421Z,12.66
2018-10-09T22:21:09.690Z,12.60
2018-10-09T22:23:38.175Z,12.57
2018-10-09T22:26:06.534Z,12.56
2018-10-09T22:28:35.136Z,12.55
2018-10-09T22:31:03.560Z,12.53
2018-10-09T22:33:31.981Z,12.54
2018-10-09T22:36:00.285Z,12.61
2018-10-09T22:38:29.914Z,12.58
2018-10-09T22:40:59.107Z,12.59
2018-10-09T22:43:27.581Z,12.57
2018-10-09T22:45:56.517Z,12.52
2018-10-09T22:48:24.834Z,12.50
2018-10-09T22:50:54.249Z,12.48
2018-10-09T22:53:22.588Z,12.47
2018-10-09T22:55:51.395Z,12.48
2018-10-09T22:58:19.755Z,12.51
2018-10-09T23:00:48.132Z,12.50
2018-10-09T23:03:16.480Z,12.50
2018-10-09T23:05:45.078Z,12.49
2018-10-09T23:08:15.224Z,12.43
2018-10-09T23:10:43.728Z,12.41
2018-10-09T23:13:12.067Z,12.38
2018-10-09T23:15:40.347Z,12.33
2018-10-09T23:18:08.838Z,12.36
2018-10-09T23:20:37.097Z,12.36
2018-10-09T23:23:05.415Z,12.32
2018-10-09T23:25:33.775Z,12.30
2018-10-09T23:28:02.116Z,12.38
2018-10-09T23:30:30.440Z,12.39
2018-10-09T23:32:58.812Z,12.36
2018-10-09T23:35:27.156Z,12.35
2018-10-09T23:37:55.489Z,12.29
2018-10-09T23:40:23.760Z,12.23
2018-10-09T23:42:52.123Z,12.14
2018-10-09T23:45:20.403Z,12.09
2018-10-09T23:47:48.769Z,12.06
2018-10-09T23:50:17.085Z,11.98
2018-10-09T23:52:45.401Z,11.88
2018-10-09T23:55:13.812Z,11.87
2018-10-09T23:57:42.120Z,11.85
